sensor_id;sensor_type;location;lat;lon;timestamp;temperature;humidity
13982;DHT22;7065;50.880;5.502;2023-01-23T00:00:44;0.80;99.90
13982;DHT22;7065;50.880;5.502;2023-01-23T00:03:10;0.80;99.90
13982;DHT22;7065;50.880;5.502;2023-01-23T00:05:36;0.70;99.90
13982;DHT22;7065;50.880;5.502;2023-01-23T00:08:02;0.70;99.90
13982;DHT22;7065;50.880;5.502;2023-01-23T00:10:28;0.70;99.90
13982;DHT22;7065;50.880;5.502;2023-01-23T00:12:54;0.70;99.90
13982;DHT22;7065;50.880;5.502;2023-01-23T00:15:21;0.70;99.90
13982;DHT22;7065;50.880;5.502;2023-01-23T00:17:46;0.70;99.90
13982;DHT22;7065;50.880;5.502;2023-01-23T00:20:12;0.70;99.90
13982;DHT22;7065;50.880;5.502;2023-01-23T00:22:38;0.70;99.90
13982;DHT22;7065;50.880;5.502;2023-01-23T00:25:05;0.70;99.90
13982;DHT22;7065;50.880;5.502;2023-01-23T00:27:31;0.70;99.90
13982;DHT22;7065;50.880;5.502;2023-01-23T00:29:57;0.70;99.90
13982;DHT22;7065;50.880;5.502;2023-01-23T00:32:23;0.70;99.90
13982;DHT22;7065;50.880;5.502;2023-01-23T00:34:49;0.70;99.90
13982;DHT22;7065;50.880;5.502;2023-01-23T00:37:14;0.70;99.90
13982;DHT22;7065;50.880;5.502;2023-01-23T00:39:41;0.70;99.90
13982;DHT22;7065;50.880;5.502;2023-01-23T00:42:07;0.80;99.90
13982;DHT22;7065;50.880;5.502;2023-01-23T00:44:33;0.80;99.90
13982;DHT22;7065;50.880;5.502;2023-01-23T00:46:59;0.80;99.90
13982;DHT22;7065;50.880;5.502;2023-01-23T00:49:25;0.80;99.90
13982;DHT22;7065;50.880;5.502;2023-01-23T00:51:51;0.80;99.90
13982;DHT22;7065;50.880;5.502;2023-01-23T00:54:18;0.80;99.90
13982;DHT22;7065;50.880;5.502;2023-01-23T00:56:46;0.70;99.90
13982;DHT22;7065;50.880;5.502;2023-01-23T00:59:12;0.70;99.90
13982;DHT22;7065;50.880;5.502;2023-01-23T01:01:38;0.70;99.90
13982;DHT22;7065;50.880;5.502;2023-01-23T01:04:04;0.80;99.90
13982;DHT22;7065;50.880;5.502;2023-01-23T01:06:30;0.80;99.90
13982;DHT22;7065;50.880;5.502;2023-01-23T01:08:56;0.70;99.90
13982;DHT22;7065;50.880;5.502;2023-01-23T01:11:23;0.70;99.90
13982;DHT22;7065;50.880;5.502;2023-01-23T01:13:48;0.70;99.90
13982;DHT22;7065;50.880;5.502;2023-01-23T01:16:15;0.70;99.90
13982;DHT22;7065;50.880;5.502;2023-01-23T01:18:41;0.70;99.90
13982;DHT22;7065;50.880;5.502;2023-01-23T01:21:07;0.80;99.90
13982;DHT22;7065;50.880;5.502;2023-01-23T01:23:33;0.80;99.90
13982;DHT22;7065;50.880;5.502;2023-01-23T01:25:59;0.80;99.90
13982;DHT22;7065;50.880;5.502;2023-01-23T01:28:26;0.80;99.90
13982;DHT22;7065;50.880;5.502;2023-01-23T01:30:55;0.80;99.90
13982;DHT22;7065;50.880;5.502;2023-01-23T01:33:21;0.80;99.90
13982;DHT22;7065;50.880;5.502;2023-01-23T01:35:48;0.90;99.90
13982;DHT22;7065;50.880;5.502;2023-01-23T01:38:14;0.90;99.90
13982;DHT22;7065;50.880;5.502;2023-01-23T01:40:40;0.90;99.90
13982;DHT22;7065;50.880;5.502;2023-01-23T01:43:08;0.90;99.90
13982;DHT22;7065;50.880;5.502;2023-01-23T01:46:10;0.90;99.90
13982;DHT22;7065;50.880;5.502;2023-01-23T01:56:52;0.90;99.90
13982;DHT22;7065;50.880;5.502;2023-01-23T01:59:20;0.90;99.90
13982;DHT22;7065;50.880;5.502;2023-01-23T02:01:51;0.90;99.90
13982;DHT22;7065;50.880;5.502;2023-01-23T02:04:18;0.90;99.90
13982;DHT22;7065;50.880;5.502;2023-01-23T02:06:44;0.90;99.90
13982;DHT22;7065;50.880;5.502;2023-01-23T02:09:22;0.80;99.90
13982;DHT22;7065;50.880;5.502;2023-01-23T02:11:49;0.80;99.90
13982;DHT22;7065;50.880;5.502;2023-01-23T02:14:14;0.90;99.90
13982;DHT22;7065;50.880;5.502;2023-01-23T02:16:41;0.80;99.90
13982;DHT22;7065;50.880;5.502;2023-01-23T02:19:44;0.80;99.90
13982;DHT22;7065;50.880;5.502;2023-01-23T02:22:25;0.90;99.90
13982;DHT22;7065;50.880;5.502;2023-01-23T02:27:28;0.90;99.90
13982;DHT22;7065;50.880;5.502;2023-01-23T02:29:53;0.90;99.90
13982;DHT22;7065;50.880;5.502;2023-01-23T02:32:21;0.80;99.90
13982;DHT22;7065;50.880;5.502;2023-01-23T02:34:50;0.80;99.90
13982;DHT22;7065;50.880;5.502;2023-01-23T02:37:17;0.80;99.90
13982;DHT22;7065;50.880;5.502;2023-01-23T02:39:43;0.80;99.90
13982;DHT22;7065;50.880;5.502;2023-01-23T02:42:10;0.80;99.90
13982;DHT22;7065;50.880;5.502;2023-01-23T02:44:36;0.80;99.90
13982;DHT22;7065;50.880;5.502;2023-01-23T02:47:05;0.80;99.90
13982;DHT22;7065;50.880;5.502;2023-01-23T02:49:32;0.80;99.90
13982;DHT22;7065;50.880;5.502;2023-01-23T02:51:58;0.90;99.90
13982;DHT22;7065;50.880;5.502;2023-01-23T02:54:24;0.90;99.90
13982;DHT22;7065;50.880;5.502;2023-01-23T02:56:50;0.90;99.90
13982;DHT22;7065;50.880;5.502;2023-01-23T02:59:16;0.90;99.90
13982;DHT22;7065;50.880;5.502;2023-01-23T03:02:08;1.00;99.90
13982;DHT22;7065;50.880;5.502;2023-01-23T03:04:34;1.00;99.90
13982;DHT22;7065;50.880;5.502;2023-01-23T03:07:00;1.00;99.90
13982;DHT22;7065;50.880;5.502;2023-01-23T03:09:26;1.00;99.90
13982;DHT22;7065;50.880;5.502;2023-01-23T03:11:52;1.00;99.90
13982;DHT22;7065;50.880;5.502;2023-01-23T03:14:20;1.00;99.90
13982;DHT22;7065;50.880;5.502;2023-01-23T03:16:46;0.90;99.90
13982;DHT22;7065;50.880;5.502;2023-01-23T03:19:16;0.90;99.90
13982;DHT22;7065;50.880;5.502;2023-01-23T03:21:43;0.90;99.90
13982;DHT22;7065;50.880;5.502;2023-01-23T03:24:11;0.90;99.90
13982;DHT22;7065;50.880;5.502;2023-01-23T03:26:39;0.90;99.90
13982;DHT22;7065;50.880;5.502;2023-01-23T03:29:05;0.90;99.90
13982;DHT22;7065;50.880;5.502;2023-01-23T03:31:50;0.90;99.90
13982;DHT22;7065;50.880;5.502;2023-01-23T03:34:16;0.90;99.90
13982;DHT22;7065;50.880;5.502;2023-01-23T03:36:43;0.80;99.90
13982;DHT22;7065;50.880;5.502;2023-01-23T03:39:09;0.90;99.90
13982;DHT22;7065;50.880;5.502;2023-01-23T03:41:53;0.90;99.90
13982;DHT22;7065;50.880;5.502;2023-01-23T03:44:19;0.90;99.90
13982;DHT22;7065;50.880;5.502;2023-01-23T03:46:47;0.90;99.90
13982;DHT22;7065;50.880;5.502;2023-01-23T03:49:13;0.80;99.90
13982;DHT22;7065;50.880;5.502;2023-01-23T03:51:38;0.80;99.90
13982;DHT22;7065;50.880;5.502;2023-01-23T03:54:04;0.80;99.90
13982;DHT22;7065;50.880;5.502;2023-01-23T03:56:30;0.80;99.90
13982;DHT22;7065;50.880;5.502;2023-01-23T03:58:55;0.90;99.90
13982;DHT22;7065;50.880;5.502;2023-01-23T04:01:22;0.90;99.90
13982;DHT22;7065;50.880;5.502;2023-01-23T04:03:49;0.90;99.90
13982;DHT22;7065;50.880;5.502;2023-01-23T04:06:15;0.90;99.90
13982;DHT22;7065;50.880;5.502;2023-01-23T04:08:41;0.90;99.90
13982;DHT22;7065;50.880;5.502;2023-01-23T04:11:08;0.90;99.90
13982;DHT22;7065;50.880;5.502;2023-01-23T04:13:34;0.90;99.90
13982;DHT22;7065;50.880;5.502;2023-01-23T04:16:00;0.90;99.90
13982;DHT22;7065;50.880;5.502;2023-01-23T04:18:27;0.90;99.90
13982;DHT22;7065;50.880;5.502;2023-01-23T04:20:53;0.90;99.90
13982;DHT22;7065;50.880;5.502;2023-01-23T04:23:18;0.90;99.90
13982;DHT22;7065;50.880;5.502;2023-01-23T04:25:44;0.90;99.90
13982;DHT22;7065;50.880;5.502;2023-01-23T04:28:10;0.90;99.90
13982;DHT22;7065;50.880;5.502;2023-01-23T04:30:36;0.90;99.90
13982;DHT22;7065;50.880;5.502;2023-01-23T04:33:01;0.90;99.90
13982;DHT22;7065;50.880;5.502;2023-01-23T04:35:27;0.90;99.90
13982;DHT22;7065;50.880;5.502;2023-01-23T04:37:53;0.90;99.90
13982;DHT22;7065;50.880;5.502;2023-01-23T04:40:18;0.90;99.90
13982;DHT22;7065;50.880;5.502;2023-01-23T04:42:44;0.90;99.90
13982;DHT22;7065;50.880;5.502;2023-01-23T04:45:10;0.90;99.90
13982;DHT22;7065;50.880;5.502;2023-01-23T04:47:36;0.90;99.90
13982;DHT22;7065;50.880;5.502;2023-01-23T04:50:02;0.90;99.90
13982;DHT22;7065;50.880;5.502;2023-01-23T04:52:28;0.90;99.90
13982;DHT22;7065;50.880;5.502;2023-01-23T04:54:54;0.90;99.90
13982;DHT22;7065;50.880;5.502;2023-01-23T04:57:20;1.00;99.90
13982;DHT22;7065;50.880;5.502;2023-01-23T04:59:45;1.00;99.90
13982;DHT22;7065;50.880;5.502;2023-01-23T05:02:11;1.00;99.90
13982;DHT22;7065;50.880;5.502;2023-01-23T05:04:37;1.00;99.90
13982;DHT22;7065;50.880;5.502;2023-01-23T05:07:03;1.00;99.90
13982;DHT22;7065;50.880;5.502;2023-01-23T05:09:29;1.00;99.90
13982;DHT22;7065;50.880;5.502;2023-01-23T05:11:54;1.00;99.90
13982;DHT22;7065;50.880;5.502;2023-01-23T05:14:20;1.10;99.90
13982;DHT22;7065;50.880;5.502;2023-01-23T05:16:48;1.00;99.90
13982;DHT22;7065;50.880;5.502;2023-01-23T05:19:14;1.00;99.90
13982;DHT22;7065;50.880;5.502;2023-01-23T05:21:40;1.00;99.90
13982;DHT22;7065;50.880;5.502;2023-01-23T05:24:06;1.00;99.90
13982;DHT22;7065;50.880;5.502;2023-01-23T05:26:32;1.00;99.90
13982;DHT22;7065;50.880;5.502;2023-01-23T05:28:59;1.00;99.90
13982;DHT22;7065;50.880;5.502;2023-01-23T05:31:25;1.00;99.90
13982;DHT22;7065;50.880;5.502;2023-01-23T05:33:51;1.10;99.90
13982;DHT22;7065;50.880;5.502;2023-01-23T05:36:17;1.00;99.90
13982;DHT22;7065;50.880;5.502;2023-01-23T05:38:42;1.00;99.90
13982;DHT22;7065;50.880;5.502;2023-01-23T05:41:08;1.00;99.90
13982;DHT22;7065;50.880;5.502;2023-01-23T05:43:34;1.00;99.90
13982;DHT22;7065;50.880;5.502;2023-01-23T05:46:00;1.00;99.90
13982;DHT22;7065;50.880;5.502;2023-01-23T05:48:26;1.00;99.90
13982;DHT22;7065;50.880;5.502;2023-01-23T05:50:52;1.00;99.90
13982;DHT22;7065;50.880;5.502;2023-01-23T05:53:18;1.00;99.90
13982;DHT22;7065;50.880;5.502;2023-01-23T05:55:43;1.10;99.90
13982;DHT22;7065;50.880;5.502;2023-01-23T05:58:09;1.10;99.90
13982;DHT22;7065;50.880;5.502;2023-01-23T06:00:35;1.00;99.90
13982;DHT22;7065;50.880;5.502;2023-01-23T06:03:00;1.10;99.90
13982;DHT22;7065;50.880;5.502;2023-01-23T06:05:26;1.10;99.90
13982;DHT22;7065;50.880;5.502;2023-01-23T06:07:52;1.10;99.90
13982;DHT22;7065;50.880;5.502;2023-01-23T06:10:18;1.10;99.90
13982;DHT22;7065;50.880;5.502;2023-01-23T06:12:44;1.10;99.90
13982;DHT22;7065;50.880;5.502;2023-01-23T06:15:10;1.10;99.90
13982;DHT22;7065;50.880;5.502;2023-01-23T06:17:36;1.00;99.90
13982;DHT22;7065;50.880;5.502;2023-01-23T06:20:02;1.00;99.90
13982;DHT22;7065;50.880;5.502;2023-01-23T06:22:28;1.00;99.90
13982;DHT22;7065;50.880;5.502;2023-01-23T06:24:54;0.90;99.90
13982;DHT22;7065;50.880;5.502;2023-01-23T06:27:20;0.90;99.90
13982;DHT22;7065;50.880;5.502;2023-01-23T06:29:45;1.00;99.90
13982;DHT22;7065;50.880;5.502;2023-01-23T06:32:11;1.00;99.90
13982;DHT22;7065;50.880;5.502;2023-01-23T06:34:37;1.00;99.90
13982;DHT22;7065;50.880;5.502;2023-01-23T06:37:03;1.00;99.90
13982;DHT22;7065;50.880;5.502;2023-01-23T06:39:28;1.00;99.90
13982;DHT22;7065;50.880;5.502;2023-01-23T06:41:55;1.00;99.90
13982;DHT22;7065;50.880;5.502;2023-01-23T06:44:21;1.00;99.90
13982;DHT22;7065;50.880;5.502;2023-01-23T06:46:47;1.10;99.90
13982;DHT22;7065;50.880;5.502;2023-01-23T06:49:13;1.10;99.90
13982;DHT22;7065;50.880;5.502;2023-01-23T06:51:38;1.10;99.90
13982;DHT22;7065;50.880;5.502;2023-01-23T06:54:04;1.10;99.90
13982;DHT22;7065;50.880;5.502;2023-01-23T06:56:30;1.10;99.90
13982;DHT22;7065;50.880;5.502;2023-01-23T06:58:56;1.10;99.90
13982;DHT22;7065;50.880;5.502;2023-01-23T07:01:21;1.10;99.90
13982;DHT22;7065;50.880;5.502;2023-01-23T07:03:48;1.10;99.90
13982;DHT22;7065;50.880;5.502;2023-01-23T07:06:14;1.10;99.90
13982;DHT22;7065;50.880;5.502;2023-01-23T07:08:41;1.10;99.90
13982;DHT22;7065;50.880;5.502;2023-01-23T07:11:08;1.00;99.90
13982;DHT22;7065;50.880;5.502;2023-01-23T07:13:34;1.10;99.90
13982;DHT22;7065;50.880;5.502;2023-01-23T07:16:00;1.10;99.90
13982;DHT22;7065;50.880;5.502;2023-01-23T07:18:26;1.10;99.90
13982;DHT22;7065;50.880;5.502;2023-01-23T07:20:54;1.10;99.90
13982;DHT22;7065;50.880;5.502;2023-01-23T07:23:20;1.10;99.90
13982;DHT22;7065;50.880;5.502;2023-01-23T07:25:46;1.10;99.90
13982;DHT22;7065;50.880;5.502;2023-01-23T07:28:13;1.10;99.90
13982;DHT22;7065;50.880;5.502;2023-01-23T07:30:39;1.10;99.90
13982;DHT22;7065;50.880;5.502;2023-01-23T07:33:05;1.10;99.90
13982;DHT22;7065;50.880;5.502;2023-01-23T07:35:31;1.10;99.90
13982;DHT22;7065;50.880;5.502;2023-01-23T07:37:57;1.10;99.90
13982;DHT22;7065;50.880;5.502;2023-01-23T07:40:23;1.10;99.90
13982;DHT22;7065;50.880;5.502;2023-01-23T07:42:48;1.20;99.90
13982;DHT22;7065;50.880;5.502;2023-01-23T07:45:14;1.10;99.90
13982;DHT22;7065;50.880;5.502;2023-01-23T07:47:40;1.20;99.90
13982;DHT22;7065;50.880;5.502;2023-01-23T07:50:07;1.20;99.90
13982;DHT22;7065;50.880;5.502;2023-01-23T07:52:34;1.20;99.90
13982;DHT22;7065;50.880;5.502;2023-01-23T07:54:59;1.20;99.90
13982;DHT22;7065;50.880;5.502;2023-01-23T07:57:25;1.20;99.90
13982;DHT22;7065;50.880;5.502;2023-01-23T07:59:50;1.20;99.90
13982;DHT22;7065;50.880;5.502;2023-01-23T08:02:16;1.10;99.90
13982;DHT22;7065;50.880;5.502;2023-01-23T08:04:42;1.10;99.90
13982;DHT22;7065;50.880;5.502;2023-01-23T08:07:08;1.20;99.90
13982;DHT22;7065;50.880;5.502;2023-01-23T08:09:33;1.10;99.90
13982;DHT22;7065;50.880;5.502;2023-01-23T08:11:59;1.20;99.90
13982;DHT22;7065;50.880;5.502;2023-01-23T08:14:25;1.20;99.90
13982;DHT22;7065;50.880;5.502;2023-01-23T08:16:51;1.30;99.90
13982;DHT22;7065;50.880;5.502;2023-01-23T08:19:18;1.30;99.90
13982;DHT22;7065;50.880;5.502;2023-01-23T08:21:44;1.30;99.90
13982;DHT22;7065;50.880;5.502;2023-01-23T08:24:11;1.30;99.90
13982;DHT22;7065;50.880;5.502;2023-01-23T08:26:44;1.30;99.90
13982;DHT22;7065;50.880;5.502;2023-01-23T08:29:10;1.40;99.90
13982;DHT22;7065;50.880;5.502;2023-01-23T08:31:36;1.40;99.90
13982;DHT22;7065;50.880;5.502;2023-01-23T08:34:02;1.40;99.90
13982;DHT22;7065;50.880;5.502;2023-01-23T08:36:28;1.50;99.90
13982;DHT22;7065;50.880;5.502;2023-01-23T08:38:54;1.50;99.90
13982;DHT22;7065;50.880;5.502;2023-01-23T08:41:21;1.50;99.90
13982;DHT22;7065;50.880;5.502;2023-01-23T08:43:50;1.50;99.90
13982;DHT22;7065;50.880;5.502;2023-01-23T08:46:16;1.50;99.90
13982;DHT22;7065;50.880;5.502;2023-01-23T08:48:42;1.50;99.90
13982;DHT22;7065;50.880;5.502;2023-01-23T08:51:11;1.60;99.90
13982;DHT22;7065;50.880;5.502;2023-01-23T08:53:37;1.60;99.90
13982;DHT22;7065;50.880;5.502;2023-01-23T08:56:17;1.70;99.90
13982;DHT22;7065;50.880;5.502;2023-01-23T08:58:44;1.70;99.90
13982;DHT22;7065;50.880;5.502;2023-01-23T09:01:14;1.70;99.90
13982;DHT22;7065;50.880;5.502;2023-01-23T09:03:40;1.70;99.90
13982;DHT22;7065;50.880;5.502;2023-01-23T09:06:06;1.70;99.90
13982;DHT22;7065;50.880;5.502;2023-01-23T09:08:32;1.70;99.90
13982;DHT22;7065;50.880;5.502;2023-01-23T09:11:03;1.60;99.90
13982;DHT22;7065;50.880;5.502;2023-01-23T09:13:29;1.70;99.90
13982;DHT22;7065;50.880;5.502;2023-01-23T09:15:55;1.70;99.90
13982;DHT22;7065;50.880;5.502;2023-01-23T09:18:20;1.70;99.90
13982;DHT22;7065;50.880;5.502;2023-01-23T09:20:50;1.70;99.90
13982;DHT22;7065;50.880;5.502;2023-01-23T09:23:16;1.70;99.90
13982;DHT22;7065;50.880;5.502;2023-01-23T09:25:42;1.70;99.90
13982;DHT22;7065;50.880;5.502;2023-01-23T09:28:08;1.70;99.90
13982;DHT22;7065;50.880;5.502;2023-01-23T09:30:34;1.70;99.90
13982;DHT22;7065;50.880;5.502;2023-01-23T09:33:00;1.80;99.90
13982;DHT22;7065;50.880;5.502;2023-01-23T09:35:26;1.80;99.90
13982;DHT22;7065;50.880;5.502;2023-01-23T09:37:53;1.80;99.90
13982;DHT22;7065;50.880;5.502;2023-01-23T09:40:29;1.90;99.90
13982;DHT22;7065;50.880;5.502;2023-01-23T09:42:59;1.90;99.90
13982;DHT22;7065;50.880;5.502;2023-01-23T09:45:27;1.90;99.90
13982;DHT22;7065;50.880;5.502;2023-01-23T09:50:50;2.10;99.90
13982;DHT22;7065;50.880;5.502;2023-01-23T09:53:21;2.00;99.90
13982;DHT22;7065;50.880;5.502;2023-01-23T09:55:57;2.00;99.90
13982;DHT22;7065;50.880;5.502;2023-01-23T09:58:29;2.00;99.90
13982;DHT22;7065;50.880;5.502;2023-01-23T10:00:56;2.00;99.90
13982;DHT22;7065;50.880;5.502;2023-01-23T10:03:27;2.10;99.90
13982;DHT22;7065;50.880;5.502;2023-01-23T10:08:48;2.00;99.90
13982;DHT22;7065;50.880;5.502;2023-01-23T10:11:45;1.90;99.90
13982;DHT22;7065;50.880;5.502;2023-01-23T10:23:02;2.20;99.90
13982;DHT22;7065;50.880;5.502;2023-01-23T10:25:32;2.30;99.90
13982;DHT22;7065;50.880;5.502;2023-01-23T10:28:28;2.30;99.90
13982;DHT22;7065;50.880;5.502;2023-01-23T10:31:01;2.40;99.90
13982;DHT22;7065;50.880;5.502;2023-01-23T10:37:03;2.40;99.90
13982;DHT22;7065;50.880;5.502;2023-01-23T10:42:20;2.50;99.90
13982;DHT22;7065;50.880;5.502;2023-01-23T10:44:46;2.60;99.90
13982;DHT22;7065;50.880;5.502;2023-01-23T10:49:53;2.70;99.90
13982;DHT22;7065;50.880;5.502;2023-01-23T10:52:37;2.80;99.90
13982;DHT22;7065;50.880;5.502;2023-01-23T10:55:23;2.90;99.90
13982;DHT22;7065;50.880;5.502;2023-01-23T10:57:53;2.90;99.90
13982;DHT22;7065;50.880;5.502;2023-01-23T11:00:32;3.00;99.90
13982;DHT22;7065;50.880;5.502;2023-01-23T11:06:06;2.70;99.90
13982;DHT22;7065;50.880;5.502;2023-01-23T11:08:39;2.60;99.90
13982;DHT22;7065;50.880;5.502;2023-01-23T11:13:45;2.70;99.90
13982;DHT22;7065;50.880;5.502;2023-01-23T11:16:19;2.50;99.90
13982;DHT22;7065;50.880;5.502;2023-01-23T11:18:54;2.60;99.90
13982;DHT22;7065;50.880;5.502;2023-01-23T11:21:31;2.60;99.90
13982;DHT22;7065;50.880;5.502;2023-01-23T11:24:16;2.50;99.90
13982;DHT22;7065;50.880;5.502;2023-01-23T11:26:43;2.40;99.90
13982;DHT22;7065;50.880;5.502;2023-01-23T11:29:25;2.40;99.90
13982;DHT22;7065;50.880;5.502;2023-01-23T11:32:05;2.40;99.90
13982;DHT22;7065;50.880;5.502;2023-01-23T11:34:39;2.50;99.90
13982;DHT22;7065;50.880;5.502;2023-01-23T11:39:36;2.60;99.90
13982;DHT22;7065;50.880;5.502;2023-01-23T11:42:02;2.60;99.90
13982;DHT22;7065;50.880;5.502;2023-01-23T11:44:29;2.60;99.90
13982;DHT22;7065;50.880;5.502;2023-01-23T12:00:39;2.50;99.90
13982;DHT22;7065;50.880;5.502;2023-01-23T12:08:58;2.60;99.90
13982;DHT22;7065;50.880;5.502;2023-01-23T12:27:47;2.70;99.90
13982;DHT22;7065;50.880;5.502;2023-01-23T12:30:39;2.80;99.90
13982;DHT22;7065;50.880;5.502;2023-01-23T12:36:12;2.80;99.90
13982;DHT22;7065;50.880;5.502;2023-01-23T12:38:58;2.80;99.90
13982;DHT22;7065;50.880;5.502;2023-01-23T12:41:48;2.90;99.90
13982;DHT22;7065;50.880;5.502;2023-01-23T12:44:31;2.90;99.90
13982;DHT22;7065;50.880;5.502;2023-01-23T12:47:09;2.90;99.90
13982;DHT22;7065;50.880;5.502;2023-01-23T12:52:27;3.10;99.90
13982;DHT22;7065;50.880;5.502;2023-01-23T12:55:06;3.00;99.90
13982;DHT22;7065;50.880;5.502;2023-01-23T12:57:38;3.10;99.90
13982;DHT22;7065;50.880;5.502;2023-01-23T13:11:09;3.10;99.90
13982;DHT22;7065;50.880;5.502;2023-01-23T13:13:56;3.10;99.90
13982;DHT22;7065;50.880;5.502;2023-01-23T13:16:29;3.20;99.90
13982;DHT22;7065;50.880;5.502;2023-01-23T13:18:57;3.10;99.90
13982;DHT22;7065;50.880;5.502;2023-01-23T13:24:31;3.00;99.90
13982;DHT22;7065;50.880;5.502;2023-01-23T13:27:45;3.00;99.90
13982;DHT22;7065;50.880;5.502;2023-01-23T13:32:58;3.00;99.90
13982;DHT22;7065;50.880;5.502;2023-01-23T13:43:54;2.80;99.90
13982;DHT22;7065;50.880;5.502;2023-01-23T13:52:28;2.80;99.90
13982;DHT22;7065;50.880;5.502;2023-01-23T13:55:22;2.80;99.90
13982;DHT22;7065;50.880;5.502;2023-01-23T13:58:16;2.80;99.90
13982;DHT22;7065;50.880;5.502;2023-01-23T14:00:57;2.90;99.90
13982;DHT22;7065;50.880;5.502;2023-01-23T14:03:48;2.90;99.90
13982;DHT22;7065;50.880;5.502;2023-01-23T14:06:37;2.90;99.90
13982;DHT22;7065;50.880;5.502;2023-01-23T14:09:17;3.00;99.90
13982;DHT22;7065;50.880;5.502;2023-01-23T14:11:43;3.10;99.90
13982;DHT22;7065;50.880;5.502;2023-01-23T14:14:10;3.10;99.90
13982;DHT22;7065;50.880;5.502;2023-01-23T14:16:55;3.20;99.90
13982;DHT22;7065;50.880;5.502;2023-01-23T14:19:22;3.10;99.90
13982;DHT22;7065;50.880;5.502;2023-01-23T14:21:50;3.10;99.90
13982;DHT22;7065;50.880;5.502;2023-01-23T14:24:25;3.00;99.90
13982;DHT22;7065;50.880;5.502;2023-01-23T14:26:57;2.90;99.90
13982;DHT22;7065;50.880;5.502;2023-01-23T14:29:25;2.90;99.90
13982;DHT22;7065;50.880;5.502;2023-01-23T14:31:51;3.00;99.90
13982;DHT22;7065;50.880;5.502;2023-01-23T14:34:22;2.90;99.90
13982;DHT22;7065;50.880;5.502;2023-01-23T14:36:54;2.90;99.90
13982;DHT22;7065;50.880;5.502;2023-01-23T14:39:27;2.80;99.90
13982;DHT22;7065;50.880;5.502;2023-01-23T14:41:55;2.80;99.90
13982;DHT22;7065;50.880;5.502;2023-01-23T14:44:30;2.80;99.90
13982;DHT22;7065;50.880;5.502;2023-01-23T14:46:59;2.80;99.90
13982;DHT22;7065;50.880;5.502;2023-01-23T14:49:30;2.80;99.90
13982;DHT22;7065;50.880;5.502;2023-01-23T14:51:59;2.70;99.90
13982;DHT22;7065;50.880;5.502;2023-01-23T14:54:26;2.70;99.90
13982;DHT22;7065;50.880;5.502;2023-01-23T14:56:52;2.70;99.90
13982;DHT22;7065;50.880;5.502;2023-01-23T14:59:26;2.70;99.90
13982;DHT22;7065;50.880;5.502;2023-01-23T15:02:01;2.70;99.90
13982;DHT22;7065;50.880;5.502;2023-01-23T15:04:28;2.70;99.90
13982;DHT22;7065;50.880;5.502;2023-01-23T15:06:58;2.60;99.90
13982;DHT22;7065;50.880;5.502;2023-01-23T15:09:31;2.60;99.90
13982;DHT22;7065;50.880;5.502;2023-01-23T15:12:05;2.60;99.90
13982;DHT22;7065;50.880;5.502;2023-01-23T15:14:37;2.60;99.90
13982;DHT22;7065;50.880;5.502;2023-01-23T15:17:26;2.60;99.90
13982;DHT22;7065;50.880;5.502;2023-01-23T15:19:53;2.60;99.90
13982;DHT22;7065;50.880;5.502;2023-01-23T15:22:28;2.60;99.90
13982;DHT22;7065;50.880;5.502;2023-01-23T15:24:55;2.50;99.90
13982;DHT22;7065;50.880;5.502;2023-01-23T15:27:34;2.50;99.90
13982;DHT22;7065;50.880;5.502;2023-01-23T15:33:03;2.40;99.90
13982;DHT22;7065;50.880;5.502;2023-01-23T15:35:35;2.40;99.90
13982;DHT22;7065;50.880;5.502;2023-01-23T15:38:03;2.40;99.90
13982;DHT22;7065;50.880;5.502;2023-01-23T15:40:32;2.40;99.90
13982;DHT22;7065;50.880;5.502;2023-01-23T15:43:14;2.40;99.90
13982;DHT22;7065;50.880;5.502;2023-01-23T15:45:42;2.40;99.90
13982;DHT22;7065;50.880;5.502;2023-01-23T15:48:07;2.40;99.90
13982;DHT22;7065;50.880;5.502;2023-01-23T15:50:33;2.40;99.90
13982;DHT22;7065;50.880;5.502;2023-01-23T15:52:59;2.40;99.90
13982;DHT22;7065;50.880;5.502;2023-01-23T15:55:26;2.30;99.90
13982;DHT22;7065;50.880;5.502;2023-01-23T15:57:53;2.40;99.90
13982;DHT22;7065;50.880;5.502;2023-01-23T16:00:21;2.40;99.90
13982;DHT22;7065;50.880;5.502;2023-01-23T16:02:55;2.30;99.90
13982;DHT22;7065;50.880;5.502;2023-01-23T16:05:22;2.30;99.90
13982;DHT22;7065;50.880;5.502;2023-01-23T16:07:48;2.40;99.90
13982;DHT22;7065;50.880;5.502;2023-01-23T16:12:44;2.30;99.90
13982;DHT22;7065;50.880;5.502;2023-01-23T16:15:27;2.30;99.90
13982;DHT22;7065;50.880;5.502;2023-01-23T16:17:55;2.30;99.90
13982;DHT22;7065;50.880;5.502;2023-01-23T16:20:33;2.30;99.90
13982;DHT22;7065;50.880;5.502;2023-01-23T16:23:02;2.30;99.90
13982;DHT22;7065;50.880;5.502;2023-01-23T16:25:34;2.30;99.90
13982;DHT22;7065;50.880;5.502;2023-01-23T16:28:01;2.20;99.90
13982;DHT22;7065;50.880;5.502;2023-01-23T16:30:27;2.20;99.90
13982;DHT22;7065;50.880;5.502;2023-01-23T16:32:53;2.20;99.90
13982;DHT22;7065;50.880;5.502;2023-01-23T16:35:21;2.20;99.90
13982;DHT22;7065;50.880;5.502;2023-01-23T16:37:49;2.20;99.90
13982;DHT22;7065;50.880;5.502;2023-01-23T16:40:17;2.20;99.90
13982;DHT22;7065;50.880;5.502;2023-01-23T16:42:45;2.20;99.90
13982;DHT22;7065;50.880;5.502;2023-01-23T16:45:25;2.20;99.90
13982;DHT22;7065;50.880;5.502;2023-01-23T16:47:52;2.20;99.90
13982;DHT22;7065;50.880;5.502;2023-01-23T16:52:56;2.20;99.90
13982;DHT22;7065;50.880;5.502;2023-01-23T16:55:29;2.20;99.90
13982;DHT22;7065;50.880;5.502;2023-01-23T16:57:56;2.20;99.90
13982;DHT22;7065;50.880;5.502;2023-01-23T17:00:23;2.20;99.90
13982;DHT22;7065;50.880;5.502;2023-01-23T17:02:54;2.20;99.90
13982;DHT22;7065;50.880;5.502;2023-01-23T17:05:21;2.20;99.90
13982;DHT22;7065;50.880;5.502;2023-01-23T17:07:47;2.20;99.90
13982;DHT22;7065;50.880;5.502;2023-01-23T17:10:17;2.20;99.90
13982;DHT22;7065;50.880;5.502;2023-01-23T17:12:50;2.20;99.90
13982;DHT22;7065;50.880;5.502;2023-01-23T17:15:23;2.20;99.90
13982;DHT22;7065;50.880;5.502;2023-01-23T17:17:53;2.20;99.90
13982;DHT22;7065;50.880;5.502;2023-01-23T17:20:20;2.20;99.90
13982;DHT22;7065;50.880;5.502;2023-01-23T17:22:46;2.30;99.90
13982;DHT22;7065;50.880;5.502;2023-01-23T17:25:23;2.20;99.90
13982;DHT22;7065;50.880;5.502;2023-01-23T17:27:50;2.20;99.90
13982;DHT22;7065;50.880;5.502;2023-01-23T17:30:18;2.10;99.90
13982;DHT22;7065;50.880;5.502;2023-01-23T17:32:47;2.10;99.90
13982;DHT22;7065;50.880;5.502;2023-01-23T17:35:27;2.10;99.90
13982;DHT22;7065;50.880;5.502;2023-01-23T17:37:55;2.10;99.90
13982;DHT22;7065;50.880;5.502;2023-01-23T17:40:27;2.10;99.90
13982;DHT22;7065;50.880;5.502;2023-01-23T17:42:53;2.10;99.90
13982;DHT22;7065;50.880;5.502;2023-01-23T17:45:20;2.20;99.90
13982;DHT22;7065;50.880;5.502;2023-01-23T17:47:52;2.10;99.90
13982;DHT22;7065;50.880;5.502;2023-01-23T17:50:26;2.10;99.90
13982;DHT22;7065;50.880;5.502;2023-01-23T17:52:54;2.10;99.90
13982;DHT22;7065;50.880;5.502;2023-01-23T17:55:22;2.10;99.90
13982;DHT22;7065;50.880;5.502;2023-01-23T17:57:48;2.10;99.90
13982;DHT22;7065;50.880;5.502;2023-01-23T18:00:16;2.20;99.90
13982;DHT22;7065;50.880;5.502;2023-01-23T18:02:44;2.10;99.90
13982;DHT22;7065;50.880;5.502;2023-01-23T18:05:13;2.10;99.90
13982;DHT22;7065;50.880;5.502;2023-01-23T18:07:39;2.20;99.90
13982;DHT22;7065;50.880;5.502;2023-01-23T18:10:07;2.20;99.90
13982;DHT22;7065;50.880;5.502;2023-01-23T18:12:37;2.20;99.90
13982;DHT22;7065;50.880;5.502;2023-01-23T18:15:15;2.20;99.90
13982;DHT22;7065;50.880;5.502;2023-01-23T18:17:59;2.20;99.90